Time;durP1;ratioP1;P1;durP2;ratioP2;P2;SDS_P1;SDS_P2;PMS_P1;PMS_P2;Temp;Humidity;BMP_temperature;BMP_pressure;BME280_temperature;BME280_humidity;BME280_pressure;Samples;Min_cycle;Max_cycle;Signal;HPM_P1;HPM_P2
2023/07/20 00:00:17;;;;;;;8.88;3.90;;;;;;;17.54;100.00;101062.50;5004665;28;20046;-68
2023/07/20 00:03:16;;;;;;;11.15;4.25;;;;;;;17.43;100.00;101071.06;5002399;28;20038;-69
2023/07/20 00:06:04;;;;;;;8.48;4.10;;;;;;;17.64;100.00;101067.94;5006574;28;20045;-69
2023/07/20 00:08:49;;;;;;;8.52;3.42;;;;;;;17.63;100.00;101066.22;4996640;28;20052;-68
2023/07/20 00:11:39;;;;;;;11.32;4.90;;;;;;;17.55;100.00;101066.16;4994622;28;20648;-68
2023/07/20 00:14:25;;;;;;;8.60;4.45;;;;;;;17.36;100.00;101062.53;5009742;28;20037;-68
2023/07/20 00:17:11;;;;;;;9.77;4.22;;;;;;;17.44;100.00;101062.59;5006712;28;20477;-68
2023/07/20 00:19:57;;;;;;;14.20;5.05;;;;;;;17.49;100.00;101064.03;5012297;28;20048;-69
2023/07/20 00:22:43;;;;;;;9.15;4.82;;;;;;;17.52;100.00;101069.25;5004034;28;20042;-68
2023/07/20 00:25:28;;;;;;;14.23;4.53;;;;;;;17.65;100.00;101064.13;5011872;28;20050;-68
2023/07/20 00:28:14;;;;;;;10.30;4.43;;;;;;;17.50;100.00;101068.53;5008133;28;20073;-67
2023/07/20 00:31:00;;;;;;;7.22;5.00;;;;;;;17.31;100.00;101062.16;4997771;28;20042;-68
2023/07/20 00:33:46;;;;;;;13.07;4.72;;;;;;;17.25;100.00;101057.28;5002297;28;20056;-67
2023/07/20 00:36:32;;;;;;;9.38;4.80;;;;;;;17.18;100.00;101047.84;5003080;28;20520;-68
2023/07/20 00:39:18;;;;;;;10.63;5.22;;;;;;;17.09;100.00;101045.03;5002849;28;20758;-69
2023/07/20 00:42:04;;;;;;;11.07;5.32;;;;;;;17.11;100.00;101050.41;5001691;28;20038;-68
2023/07/20 00:44:50;;;;;;;14.15;5.70;;;;;;;17.02;100.00;101056.88;5009535;28;20080;-68
2023/07/20 00:47:36;;;;;;;11.13;5.10;;;;;;;16.97;100.00;101046.31;5007316;28;20041;-68
2023/07/20 00:50:24;;;;;;;9.70;4.85;;;;;;;16.94;100.00;101057.69;5003831;28;20054;-68
2023/07/20 00:53:10;;;;;;;11.85;5.68;;;;;;;16.97;100.00;101050.94;5005474;28;20056;-67
2023/07/20 00:55:56;;;;;;;10.40;5.07;;;;;;;16.99;100.00;101058.09;4998092;28;20070;-69
2023/07/20 00:58:42;;;;;;;13.27;5.28;;;;;;;16.79;100.00;101056.44;5008439;28;20120;-68
2023/07/20 01:01:28;;;;;;;11.45;5.57;;;;;;;16.68;100.00;101052.91;5004732;28;20369;-67
2023/07/20 01:04:14;;;;;;;12.85;6.03;;;;;;;16.60;100.00;101052.81;5009161;28;20379;-68
2023/07/20 01:07:09;;;;;;;13.38;6.10;;;;;;;16.60;100.00;101052.81;5008147;28;20037;-70
2023/07/20 01:10:45;;;;;;;8.73;5.25;;;;;;;16.44;100.00;101055.38;5007533;28;20060;-68
2023/07/20 01:13:31;;;;;;;12.77;5.80;;;;;;;16.45;100.00;101057.13;5009543;28;20049;-69
2023/07/20 01:16:17;;;;;;;17.67;5.65;;;;;;;16.23;100.00;101063.94;5002802;28;20046;-68
2023/07/20 01:19:03;;;;;;;10.23;5.50;;;;;;;16.18;100.00;101069.91;5005800;28;20053;-67
2023/07/20 01:22:07;;;;;;;11.63;5.82;;;;;;;16.13;100.00;101064.00;5002921;28;20121;-68
2023/07/20 01:25:16;;;;;;;12.95;6.13;;;;;;;16.28;100.00;101067.09;5006649;28;20037;-68
2023/07/20 01:28:15;;;;;;;11.40;5.60;;;;;;;16.29;100.00;101072.47;5010360;28;20073;-68
2023/07/20 01:31:30;;;;;;;13.65;5.72;;;;;;;16.35;100.00;101071.88;5001772;28;20046;-68
2023/07/20 01:34:18;;;;;;;13.88;6.18;;;;;;;16.13;100.00;101070.41;5003375;28;20288;-68
2023/07/20 01:37:06;;;;;;;13.80;6.20;;;;;;;15.93;100.00;101066.84;5005001;28;20042;-68
2023/07/20 01:39:55;;;;;;;10.02;5.70;;;;;;;15.83;100.00;101057.72;5006029;28;20090;-67
2023/07/20 01:42:46;;;;;;;14.55;7.65;;;;;;;15.92;100.00;101061.47;4993339;28;20077;-68
2023/07/20 01:45:31;;;;;;;11.55;6.38;;;;;;;16.05;100.00;101064.75;4995373;28;20504;-68
2023/07/20 01:48:17;;;;;;;13.93;5.90;;;;;;;16.02;100.00;101065.06;5009691;28;20096;-71
2023/07/20 01:51:03;;;;;;;10.35;6.13;;;;;;;16.16;100.00;101064.53;5006155;28;20054;-68
2023/07/20 01:53:49;;;;;;;12.05;5.93;;;;;;;16.17;100.00;101071.81;5006281;28;20042;-68
2023/07/20 01:56:34;;;;;;;17.77;6.55;;;;;;;16.06;100.00;101068.41;5007253;28;20042;-67
2023/07/20 01:59:20;;;;;;;15.48;6.88;;;;;;;15.89;100.00;101070.94;5005240;28;20034;-69
2023/07/20 02:02:06;;;;;;;13.25;6.03;;;;;;;16.22;100.00;101074.13;5005680;28;20056;-67
2023/07/20 02:04:51;;;;;;;15.95;7.00;;;;;;;16.27;100.00;101069.00;5009469;28;20550;-69
2023/07/20 02:07:37;;;;;;;11.90;6.45;;;;;;;16.19;100.00;101071.66;5000910;28;20046;-67
2023/07/20 02:10:23;;;;;;;12.88;6.07;;;;;;;16.08;100.00;101069.09;5004939;28;20156;-70
2023/07/20 02:13:08;;;;;;;17.02;7.03;;;;;;;16.23;100.00;101077.75;5002625;28;20567;-68
2023/07/20 02:15:54;;;;;;;10.30;6.05;;;;;;;16.07;100.00;101079.28;4999930;28;20052;-68
2023/07/20 02:18:40;;;;;;;12.05;6.22;;;;;;;16.26;100.00;101083.84;5007958;28;20030;-68
2023/07/20 02:21:26;;;;;;;12.15;6.15;;;;;;;16.39;100.00;101074.34;5006141;28;20045;-68
2023/07/20 02:24:12;;;;;;;15.00;6.68;;;;;;;16.54;100.00;101083.84;5005624;28;20499;-68
2023/07/20 02:26:58;;;;;;;19.20;7.60;;;;;;;16.57;100.00;101086.28;5004838;28;20042;-69
2023/07/20 02:29:44;;;;;;;14.50;6.47;;;;;;;16.49;100.00;101081.53;4995543;28;20081;-68
2023/07/20 02:32:31;;;;;;;14.52;6.95;;;;;;;16.34;100.00;101083.94;5005298;28;20073;-68
2023/07/20 02:35:17;;;;;;;11.23;6.57;;;;;;;16.41;100.00;101086.97;5008287;28;20036;-68
2023/07/20 02:38:03;;;;;;;12.70;6.78;;;;;;;16.32;100.00;101097.06;5003647;28;20092;-68
2023/07/20 02:40:49;;;;;;;17.30;6.75;;;;;;;16.35;100.00;101099.50;5004068;28;20046;-69
2023/07/20 02:43:35;;;;;;;17.45;7.15;;;;;;;16.40;100.00;101095.41;5007623;28;20045;-68
2023/07/20 02:46:21;;;;;;;16.75;6.78;;;;;;;16.40;100.00;101093.53;5005868;28;20042;-68
2023/07/20 02:49:06;;;;;;;17.63;7.15;;;;;;;16.53;100.00;101098.69;5010145;28;20053;-68
2023/07/20 02:51:52;;;;;;;19.98;7.35;;;;;;;16.51;100.00;101101.63;5004537;28;20050;-69
2023/07/20 02:54:38;;;;;;;21.48;7.90;;;;;;;16.46;100.00;101094.78;5004816;28;20713;-68
2023/07/20 02:57:24;;;;;;;18.83;7.57;;;;;;;16.29;100.00;101096.50;5001952;28;20044;-70
2023/07/20 03:00:11;;;;;;;18.13;7.18;;;;;;;16.45;100.00;101104.13;4999641;28;20065;-68
2023/07/20 03:02:57;;;;;;;18.15;8.25;;;;;;;16.38;100.00;101114.03;4998854;28;20050;-68
2023/07/20 03:05:42;;;;;;;18.80;9.07;;;;;;;16.40;100.00;101111.97;4994858;28;20057;-67
2023/07/20 03:08:28;;;;;;;17.08;9.05;;;;;;;16.43;100.00;101109.81;5010497;28;20052;-69
2023/07/20 03:11:15;;;;;;;19.38;9.48;;;;;;;16.37;100.00;101115.09;5004900;28;20045;-68
2023/07/20 03:14:00;;;;;;;19.23;9.90;;;;;;;16.39;100.00;101111.13;5006954;28;20069;-71
2023/07/20 03:16:46;;;;;;;19.50;10.10;;;;;;;16.40;100.00;101115.63;5008623;28;20050;-68
2023/07/20 03:19:32;;;;;;;17.98;10.50;;;;;;;16.54;100.00;101122.53;4993355;28;20045;-68
2023/07/20 03:22:18;;;;;;;18.73;10.98;;;;;;;16.48;100.00;101125.94;4995248;28;20511;-68
2023/07/20 03:25:04;;;;;;;17.35;10.95;;;;;;;16.62;100.00;101139.22;5007422;28;20053;-68
2023/07/20 03:27:50;;;;;;;24.17;11.30;;;;;;;16.60;100.00;101129.34;5008436;28;20046;-68
2023/07/20 03:30:36;;;;;;;19.25;11.40;;;;;;;16.50;100.00;101130.28;5001864;28;20124;-69
2023/07/20 03:33:26;;;;;;;29.80;12.15;;;;;;;16.39;100.00;101124.94;5004311;28;20057;-71
2023/07/20 03:36:12;;;;;;;22.23;11.88;;;;;;;16.37;100.00;101126.13;5004344;28;20386;-71
2023/07/20 03:38:57;;;;;;;20.17;12.10;;;;;;;16.33;100.00;101131.06;4998993;28;20042;-71
2023/07/20 03:41:43;;;;;;;16.33;11.90;;;;;;;16.32;100.00;101132.13;5009892;28;20050;-71
2023/07/20 03:44:29;;;;;;;16.80;11.27;;;;;;;16.34;100.00;101138.34;5006011;28;20049;-71
2023/07/20 03:47:15;;;;;;;17.05;9.77;;;;;;;16.40;100.00;101143.28;5003579;28;20046;-71
2023/07/20 03:50:00;;;;;;;14.63;8.95;;;;;;;16.34;100.00;101138.34;5000187;28;20058;-71
2023/07/20 03:52:46;;;;;;;17.45;8.73;;;;;;;16.39;100.00;101138.75;5005157;28;20033;-71
2023/07/20 03:55:32;;;;;;;12.98;9.05;;;;;;;16.59;100.00;101139.53;4996937;28;20255;-71
2023/07/20 03:58:19;;;;;;;12.15;8.57;;;;;;;16.37;100.00;101137.19;5006819;28;20520;-71
2023/07/20 04:01:05;;;;;;;16.25;8.57;;;;;;;16.41;100.00;101149.66;4983636;28;20038;-71
2023/07/20 04:03:51;;;;;;;22.73;7.90;;;;;;;16.49;100.00;101147.88;5005633;28;20053;-71
2023/07/20 04:06:37;;;;;;;15.18;8.90;;;;;;;16.32;100.00;101152.31;5006235;28;20414;-71
2023/07/20 04:09:23;;;;;;;14.20;9.40;;;;;;;16.28;100.00;101161.06;5009674;28;20065;-71
2023/07/20 04:12:09;;;;;;;16.75;9.02;;;;;;;16.33;100.00;101155.94;5007304;28;20045;-71
2023/07/20 04:14:54;;;;;;;14.30;9.80;;;;;;;16.47;100.00;101154.59;5005625;28;20054;-71
2023/07/20 04:17:40;;;;;;;14.30;9.25;;;;;;;16.50;100.00;101154.28;5005820;28;20473;-71
2023/07/20 04:20:26;;;;;;;13.43;8.40;;;;;;;16.51;100.00;101150.47;5004276;28;20546;-71
2023/07/20 04:23:12;;;;;;;15.57;9.30;;;;;;;16.57;100.00;101158.16;5005991;28;20125;-71
2023/07/20 04:25:58;;;;;;;13.38;8.20;;;;;;;16.55;100.00;101151.94;4980717;28;20036;-72
2023/07/20 04:28:44;;;;;;;10.68;7.93;;;;;;;16.44;100.00;101152.13;5005463;28;20481;-72
2023/07/20 04:31:32;;;;;;;14.65;7.85;;;;;;;16.38;100.00;101155.50;5008703;28;20421;-71
2023/07/20 04:34:18;;;;;;;11.50;7.97;;;;;;;16.26;100.00;101158.44;5000435;28;20077;-72
2023/07/20 04:37:04;;;;;;;11.48;8.27;;;;;;;16.35;100.00;101164.97;5002201;28;20078;-72
2023/07/20 04:39:50;;;;;;;9.65;7.65;;;;;;;16.25;100.00;101165.00;5005889;28;20460;-72
2023/07/20 04:42:35;;;;;;;11.05;6.97;;;;;;;16.17;100.00;101162.13;5009653;28;20045;-73
2023/07/20 04:45:23;;;;;;;7.57;5.93;;;;;;;16.16;100.00;101155.72;4993134;28;20041;-72
2023/07/20 04:48:11;;;;;;;10.13;6.45;;;;;;;16.10;100.00;101163.72;5008335;28;20077;-72
2023/07/20 04:50:57;;;;;;;8.70;6.43;;;;;;;16.03;100.00;101160.69;5002084;28;20050;-71
2023/07/20 04:53:42;;;;;;;9.02;6.00;;;;;;;16.06;100.00;101165.06;5000809;28;20047;-71
2023/07/20 04:56:28;;;;;;;11.52;6.50;;;;;;;16.06;100.00;101170.59;5003792;28;20054;-71
2023/07/20 04:59:14;;;;;;;20.75;6.72;;;;;;;16.07;100.00;101170.44;4989123;28;20054;-71
2023/07/20 05:01:59;;;;;;;9.50;5.05;;;;;;;15.95;100.00;101167.00;4999110;28;20497;-72
2023/07/20 05:04:45;;;;;;;5.35;4.85;;;;;;;15.89;100.00;101167.59;4998725;28;20042;-71
2023/07/20 05:07:32;;;;;;;7.32;5.40;;;;;;;16.17;100.00;101176.81;4980167;28;21343;-71
2023/07/20 05:10:18;;;;;;;8.13;5.50;;;;;;;16.20;100.00;101175.66;5002395;28;20048;-71
2023/07/20 05:13:03;;;;;;;7.45;5.10;;;;;;;16.21;100.00;101169.09;5004588;28;20503;-72
2023/07/20 05:15:52;;;;;;;7.47;5.65;;;;;;;16.23;100.00;101164.25;5001130;28;20136;-71
2023/07/20 05:18:38;;;;;;;9.30;5.65;;;;;;;16.38;100.00;101166.53;5002702;28;20123;-71
2023/07/20 05:21:24;;;;;;;7.60;6.32;;;;;;;16.49;100.00;101169.13;5006814;28;20042;-71
2023/07/20 05:24:10;;;;;;;12.93;5.65;;;;;;;16.52;100.00;101171.59;4999273;28;20046;-71
2023/07/20 05:26:55;;;;;;;9.18;6.60;;;;;;;16.62;100.00;101169.63;5003786;28;20072;-72
2023/07/20 05:29:45;;;;;;;11.32;7.50;;;;;;;16.80;100.00;101166.06;5006736;28;20048;-71
2023/07/20 05:32:31;;;;;;;8.48;7.40;;;;;;;16.69;100.00;101173.53;5003569;28;20037;-71
2023/07/20 05:35:18;;;;;;;9.38;6.57;;;;;;;17.05;100.00;101173.66;4988604;28;20050;-71
2023/07/20 05:38:05;;;;;;;8.93;6.60;;;;;;;16.94;100.00;101171.09;5003440;28;20046;-72
2023/07/20 05:40:50;;;;;;;9.70;6.65;;;;;;;17.10;100.00;101175.91;5002540;28;20053;-71
2023/07/20 05:43:36;;;;;;;11.68;6.30;;;;;;;17.35;100.00;101174.28;5001440;28;20038;-72
2023/07/20 05:46:22;;;;;;;8.95;5.88;;;;;;;17.51;100.00;101170.81;4987791;28;20487;-72
2023/07/20 05:49:08;;;;;;;7.82;6.63;;;;;;;17.53;100.00;101182.59;5001729;28;20041;-71
2023/07/20 05:51:55;;;;;;;7.95;6.22;;;;;;;17.67;100.00;101177.53;5004052;28;20046;-72
2023/07/20 05:54:41;;;;;;;14.93;6.20;;;;;;;18.08;100.00;101186.19;4977968;28;20046;-72
2023/07/20 05:57:27;;;;;;;9.65;6.68;;;;;;;17.98;100.00;101180.72;5000363;28;20080;-72
2023/07/20 06:00:13;;;;;;;10.02;6.28;;;;;;;17.76;100.00;101185.75;5007322;28;20045;-72
2023/07/20 06:02:59;;;;;;;7.32;5.50;;;;;;;17.95;100.00;101184.69;5006526;28;20038;-72
2023/07/20 06:05:45;;;;;;;6.38;5.78;;;;;;;17.61;100.00;101193.75;4999981;28;20045;-72
2023/07/20 06:08:31;;;;;;;10.25;6.15;;;;;;;17.40;100.00;101199.59;5004503;28;20125;-71
2023/07/20 06:11:17;;;;;;;9.25;6.07;;;;;;;17.20;100.00;101200.75;5001012;28;20046;-71
2023/07/20 06:14:02;;;;;;;7.43;5.43;;;;;;;17.82;100.00;101204.50;4986582;28;20140;-72
2023/07/20 06:16:48;;;;;;;7.38;5.10;;;;;;;18.47;100.00;101216.22;5000642;28;20050;-72
2023/07/20 06:19:34;;;;;;;6.70;4.80;;;;;;;18.52;100.00;101220.22;4993312;28;20096;-72
2023/07/20 06:22:20;;;;;;;5.22;3.95;;;;;;;18.24;100.00;101211.22;5008263;28;20500;-71
2023/07/20 06:25:06;;;;;;;6.68;4.90;;;;;;;17.87;100.00;101212.31;5000801;28;20116;-70
2023/07/20 06:27:52;;;;;;;6.07;4.68;;;;;;;17.87;100.00;101214.19;5010530;28;20038;-70
2023/07/20 06:30:38;;;;;;;5.40;4.78;;;;;;;17.53;100.00;101212.16;5013588;28;20069;-70
2023/07/20 06:33:23;;;;;;;7.15;4.88;;;;;;;17.29;100.00;101216.44;5013493;28;20049;-70
2023/07/20 06:36:09;;;;;;;6.78;4.60;;;;;;;17.77;100.00;101220.72;5012968;28;20045;-70
2023/07/20 06:38:56;;;;;;;7.57;4.75;;;;;;;17.90;100.00;101223.09;5023181;28;20041;-72
2023/07/20 06:41:41;;;;;;;8.68;4.88;;;;;;;17.45;100.00;101219.38;5027272;28;20042;-71
2023/07/20 06:44:27;;;;;;;5.80;4.95;;;;;;;17.79;100.00;101224.19;5024011;28;20061;-71
2023/07/20 06:47:13;;;;;;;5.03;4.53;;;;;;;17.62;100.00;101214.84;5031125;28;20072;-71
2023/07/20 06:49:58;;;;;;;5.18;4.68;;;;;;;17.67;100.00;101224.59;5014560;28;20092;-71
2023/07/20 06:52:46;;;;;;;8.57;5.15;;;;;;;18.73;100.00;101225.38;5022740;28;20046;-71
2023/07/20 06:55:32;;;;;;;7.72;4.78;;;;;;;19.33;100.00;101223.53;5017813;28;20042;-72
2023/07/20 06:58:18;;;;;;;4.90;4.50;;;;;;;19.37;100.00;101224.06;5023155;28;20038;-71
2023/07/20 07:01:08;;;;;;;7.95;4.45;;;;;;;19.09;100.00;101222.44;5027036;28;20072;-72
2023/07/20 07:03:54;;;;;;;5.97;3.65;;;;;;;20.26;100.00;101227.94;5004402;28;20030;-71
2023/07/20 07:06:39;;;;;;;4.28;3.83;;;;;;;19.61;100.00;101224.13;5010515;28;20200;-71
2023/07/20 07:09:25;;;;;;;4.15;3.55;;;;;;;20.39;100.00;101228.25;5018016;28;20037;-71
2023/07/20 07:12:11;;;;;;;4.05;3.65;;;;;;;19.90;100.00;101219.13;5021609;28;20034;-71
2023/07/20 07:14:57;;;;;;;5.63;3.80;;;;;;;19.50;100.00;101221.66;5022937;28;20042;-71
2023/07/20 07:17:43;;;;;;;3.72;2.97;;;;;;;19.21;100.00;101231.31;5024615;28;20072;-71
2023/07/20 07:20:29;;;;;;;5.20;3.15;;;;;;;18.96;100.00;101223.97;5013549;28;20052;-71
2023/07/20 07:23:15;;;;;;;3.97;2.95;;;;;;;18.59;100.00;101227.91;5022045;28;20038;-71
2023/07/20 07:26:00;;;;;;;4.50;3.78;;;;;;;18.62;100.00;101230.34;5022965;28;20090;-71
2023/07/20 07:28:46;;;;;;;4.45;3.80;;;;;;;18.51;100.00;101231.50;5010924;28;20055;-71
2023/07/20 07:31:34;;;;;;;3.60;3.30;;;;;;;19.40;100.00;101234.84;5023384;28;20042;-71
2023/07/20 07:34:20;;;;;;;4.45;3.08;;;;;;;20.47;100.00;101234.88;5015301;28;20042;-71
2023/07/20 07:37:05;;;;;;;4.35;3.08;;;;;;;21.05;100.00;101230.88;5021007;28;20045;-72
2023/07/20 07:39:51;;;;;;;5.85;2.78;;;;;;;20.87;100.00;101241.38;5011351;28;20046;-71
2023/07/20 07:42:37;;;;;;;2.55;2.22;;;;;;;20.65;100.00;101238.31;5008609;28;20124;-71
2023/07/20 07:45:22;;;;;;;3.70;2.40;;;;;;;19.99;100.00;101235.63;5002056;28;20041;-71
2023/07/20 07:48:11;;;;;;;5.25;3.33;;;;;;;19.66;100.00;101237.50;5001516;28;20069;-71
2023/07/20 07:50:57;;;;;;;3.67;3.22;;;;;;;19.79;100.00;101234.22;5011320;28;20253;-71
2023/07/20 07:53:43;;;;;;;4.70;2.75;;;;;;;19.39;100.00;101245.06;5014479;28;20034;-71
2023/07/20 07:56:29;;;;;;;2.78;2.35;;;;;;;19.62;100.00;101239.72;5017157;28;20045;-71
2023/07/20 07:59:15;;;;;;;3.88;2.75;;;;;;;19.75;100.00;101249.47;5016848;28;20076;-71
2023/07/20 08:02:00;;;;;;;7.82;2.50;;;;;;;20.12;100.00;101254.56;5022528;28;20073;-71
2023/07/20 08:04:46;;;;;;;3.22;2.13;;;;;;;20.29;100.00;101260.97;5023271;28;20046;-71
2023/07/20 08:07:32;;;;;;;3.47;2.33;;;;;;;21.19;100.00;101259.88;5020656;28;20061;-71
2023/07/20 08:10:18;;;;;;;2.10;1.73;;;;;;;20.84;100.00;101267.69;5025791;28;20038;-72
2023/07/20 08:13:04;;;;;;;2.88;1.60;;;;;;;22.24;91.25;101268.75;5018460;28;20065;-70
2023/07/20 08:15:54;;;;;;;1.92;1.38;;;;;;;22.36;90.14;101268.13;5014784;28;20102;-72
2023/07/20 08:18:39;;;;;;;3.03;1.88;;;;;;;21.94;93.21;101260.28;5018184;28;20050;-71
2023/07/20 08:21:26;;;;;;;3.08;2.20;;;;;;;22.56;91.36;101260.09;5024646;28;20038;-72
2023/07/20 08:24:11;;;;;;;3.65;2.30;;;;;;;21.58;98.52;101261.78;5002137;28;20078;-70
2023/07/20 08:26:57;;;;;;;2.30;2.10;;;;;;;20.85;99.35;101257.41;5016468;28;20101;-73
2023/07/20 08:29:43;;;;;;;3.00;1.92;;;;;;;20.66;100.00;101256.78;5013085;28;20045;-75
2023/07/20 08:32:28;;;;;;;4.35;1.75;;;;;;;20.51;100.00;101261.28;4984413;28;20049;-71
2023/07/20 08:35:15;;;;;;;3.55;2.03;;;;;;;20.47;100.00;101265.47;5023947;28;20091;-71
2023/07/20 08:38:01;;;;;;;3.50;2.22;;;;;;;20.19;100.00;101265.84;5016131;28;20045;-71
2023/07/20 08:40:47;;;;;;;3.22;2.78;;;;;;;21.13;97.30;101262.50;5009898;28;20038;-73
2023/07/20 08:43:33;;;;;;;5.95;2.42;;;;;;;21.79;95.08;101263.00;4997216;28;20057;-70
2023/07/20 08:46:19;;;;;;;2.97;2.35;;;;;;;22.47;89.53;101261.22;5006790;28;20103;-70
2023/07/20 08:49:06;;;;;;;3.72;1.73;;;;;;;22.82;79.77;101269.06;4997520;28;20632;-70
2023/07/20 08:51:53;;;;;;;1.98;1.60;;;;;;;20.61;90.56;101273.09;4996568;28;20049;-69
2023/07/20 08:54:39;;;;;;;1.45;1.20;;;;;;;22.62;79.76;101271.56;4998091;28;20034;-70
2023/07/20 08:57:26;;;;;;;2.45;1.10;;;;;;;22.87;76.72;101267.41;5009270;28;20046;-70
2023/07/20 09:00:13;;;;;;;1.98;1.40;;;;;;;21.77;82.78;101257.63;5007729;28;20033;-70
2023/07/20 09:03:02;;;;;;;4.43;1.63;;;;;;;22.99;78.06;101258.53;5012420;28;20121;-71
2023/07/20 09:05:48;;;;;;;1.58;1.20;;;;;;;22.74;76.33;101258.84;5011214;28;20037;-70
2023/07/20 09:08:38;;;;;;;1.45;1.20;;;;;;;23.18;74.25;101257.13;5006976;28;20042;-72
2023/07/20 09:11:24;;;;;;;2.30;1.20;;;;;;;22.80;74.31;101246.91;4999511;28;20046;-70
2023/07/20 09:14:10;;;;;;;2.90;1.13;;;;;;;23.12;74.31;101244.81;5018083;28;20101;-72
2023/07/20 09:16:56;;;;;;;2.42;1.38;;;;;;;23.93;72.13;101241.88;5005614;28;20041;-70
2023/07/20 09:19:48;;;;;;;1.95;1.50;;;;;;;24.08;72.69;101246.53;4999827;28;20057;-71
2023/07/20 09:22:34;;;;;;;2.17;1.10;;;;;;;24.40;68.93;101245.94;4999883;28;20072;-70
2023/07/20 09:25:20;;;;;;;3.20;1.20;;;;;;;24.06;67.12;101248.69;5010753;28;20050;-70
2023/07/20 09:28:06;;;;;;;1.92;1.10;;;;;;;24.09;66.53;101245.44;5004751;28;20069;-71
2023/07/20 09:30:54;;;;;;;2.72;1.00;;;;;;;23.29;69.86;101237.94;5008543;28;20092;-70
2023/07/20 09:33:39;;;;;;;1.85;1.10;;;;;;;22.53;77.53;101243.72;5003945;28;20045;-71
2023/07/20 09:36:29;;;;;;;3.83;1.10;;;;;;;22.39;79.29;101239.00;5004222;28;20084;-70
2023/07/20 09:39:15;;;;;;;2.28;1.15;;;;;;;22.13;76.56;101240.25;5008115;28;20042;-70
2023/07/20 09:42:05;;;;;;;2.22;1.35;;;;;;;21.87;78.39;101246.22;5004512;28;20038;-70
2023/07/20 09:44:51;;;;;;;2.50;1.30;;;;;;;20.99;80.52;101239.94;5005400;28;20042;-71
2023/07/20 09:47:38;;;;;;;3.78;1.70;;;;;;;22.13;75.73;101240.25;5002399;28;20046;-69
2023/07/20 09:50:23;;;;;;;3.17;1.30;;;;;;;23.64;71.05;101240.91;5009317;28;20045;-69
2023/07/20 09:53:15;;;;;;;1.48;1.38;;;;;;;22.08;76.24;101228.78;5008232;28;20096;-70
2023/07/20 09:56:02;;;;;;;1.20;1.10;;;;;;;23.80;67.15;101233.34;4999978;28;20088;-70
2023/07/20 09:58:48;;;;;;;1.17;1.00;;;;;;;24.46;65.14;101238.66;5007180;28;20069;-70
2023/07/20 10:01:35;;;;;;;2.15;0.93;;;;;;;23.93;66.84;101232.63;5006238;28;20042;-70
2023/07/20 10:04:22;;;;;;;2.78;1.10;;;;;;;23.85;67.92;101228.03;5006152;28;20041;-70
2023/07/20 10:07:11;;;;;;;1.15;0.98;;;;;;;23.52;64.77;101224.88;5009691;28;20076;-71
2023/07/20 10:10:01;;;;;;;1.67;1.00;;;;;;;22.93;70.62;101232.28;5009760;28;20041;-70
2023/07/20 10:12:48;;;;;;;4.10;1.08;;;;;;;23.53;68.73;101221.00;5004876;28;20030;-71
2023/07/20 10:15:40;;;;;;;1.88;0.80;;;;;;;22.93;70.49;101223.91;5004001;28;20041;-71
2023/07/20 10:18:29;;;;;;;1.30;0.90;;;;;;;22.60;68.41;101235.47;5022900;28;20037;-71
2023/07/20 10:21:17;;;;;;;2.03;0.68;;;;;;;21.97;71.44;101221.75;5009406;28;20030;-70
2023/07/20 10:24:04;;;;;;;1.90;0.90;;;;;;;22.65;69.44;101220.94;5012404;28;20088;-69
2023/07/20 10:26:51;;;;;;;1.98;0.75;;;;;;;22.25;68.20;101221.16;4994291;28;20121;-71
2023/07/20 10:29:37;;;;;;;1.48;0.85;;;;;;;23.24;69.89;101215.28;5007122;28;20049;-70
2023/07/20 10:32:23;;;;;;;1.50;1.00;;;;;;;22.76;73.01;101218.50;5002688;28;20046;-71
2023/07/20 10:35:14;;;;;;;1.10;0.93;;;;;;;22.27;75.57;101213.44;5005075;28;20038;-69
2023/07/20 10:38:01;;;;;;;1.13;0.90;;;;;;;22.45;75.72;101220.59;5007869;28;20069;-70
2023/07/20 10:40:56;;;;;;;2.75;1.10;;;;;;;22.06;78.31;101208.59;4999506;28;20076;-70
2023/07/20 10:43:43;;;;;;;2.72;0.90;;;;;;;22.30;78.73;101203.84;5005416;28;20044;-69
2023/07/20 10:46:38;;;;;;;3.08;0.95;;;;;;;21.94;81.42;101208.19;5007310;28;20054;-69
2023/07/20 10:49:26;;;;;;;2.88;1.20;;;;;;;21.92;83.77;101203.84;5004474;28;20092;-69
2023/07/20 10:52:12;;;;;;;1.92;1.20;;;;;;;21.78;83.02;101213.91;5009660;28;20037;-70
2023/07/20 10:55:10;;;;;;;1.80;1.00;;;;;;;21.86;80.06;101205.47;4996186;28;20040;-70
2023/07/20 10:58:27;;;;;;;2.80;0.90;;;;;;;22.45;79.60;101203.84;5002176;28;20117;-69
2023/07/20 11:01:16;;;;;;;1.75;1.10;;;;;;;22.66;74.67;101200.31;5003155;28;20255;-70
2023/07/20 11:04:08;;;;;;;2.10;1.02;;;;;;;23.61;71.73;101202.19;5003784;28;20026;-69
2023/07/20 11:06:57;;;;;;;2.42;1.10;;;;;;;23.29;71.21;101201.59;4995782;28;20605;-71
2023/07/20 11:09:43;;;;;;;1.75;1.02;;;;;;;23.88;67.81;101194.06;4979417;28;20121;-70
2023/07/20 11:12:28;;;;;;;2.17;1.00;;;;;;;23.90;67.05;101191.94;5003230;28;20030;-70
2023/07/20 11:15:15;;;;;;;2.30;0.90;;;;;;;24.24;64.91;101197.81;5000810;28;20389;-70
2023/07/20 11:18:14;;;;;;;1.35;1.05;;;;;;;24.05;64.05;101194.63;4993773;28;20049;-71
2023/07/20 11:20:59;;;;;;;1.10;1.00;;;;;;;24.89;60.02;101188.13;5007650;28;20040;-70
2023/07/20 11:23:48;;;;;;;1.08;0.80;;;;;;;24.48;62.14;101176.84;5007977;28;20097;-69
2023/07/20 11:26:44;;;;;;;2.22;1.00;;;;;;;25.12;59.37;101185.00;5008194;28;20050;-70
2023/07/20 11:29:29;;;;;;;2.50;0.70;;;;;;;24.87;60.42;101181.84;5005262;28;20567;-72
2023/07/20 11:32:23;;;;;;;2.45;0.80;;;;;;;24.77;58.87;101181.38;4989868;28;20172;-70
2023/07/20 11:35:12;;;;;;;3.38;0.63;;;;;;;23.72;62.16;101174.75;5006586;28;20034;-70
2023/07/20 11:37:58;;;;;;;0.93;0.80;;;;;;;24.34;60.71;101173.97;4993758;28;20716;-71
2023/07/20 11:40:45;;;;;;;1.17;0.80;;;;;;;24.17;60.20;101167.84;5002531;28;20046;-71
2023/07/20 11:43:31;;;;;;;1.23;0.77;;;;;;;24.38;61.14;101163.22;5000384;28;20289;-70
2023/07/20 11:46:17;;;;;;;3.08;0.90;;;;;;;23.84;61.84;101165.66;5005893;28;20068;-69
2023/07/20 11:49:03;;;;;;;1.30;0.80;;;;;;;23.76;62.23;101164.88;4988135;28;20550;-69
2023/07/20 11:51:49;;;;;;;2.15;0.80;;;;;;;24.43;59.53;101157.88;5007815;28;20046;-69
2023/07/20 11:54:35;;;;;;;3.22;0.70;;;;;;;24.63;60.75;101151.56;4994012;28;20132;-70
2023/07/20 11:57:21;;;;;;;1.92;0.80;;;;;;;24.21;59.71;101149.56;5008422;28;20120;-70
2023/07/20 12:00:11;;;;;;;3.45;0.90;;;;;;;23.40;61.44;101157.41;4996129;28;20038;-70
2023/07/20 12:02:57;;;;;;;14.30;1.05;;;;;;;23.23;61.97;101149.28;5007534;28;20436;-70
2023/07/20 12:05:43;;;;;;;1.23;0.73;;;;;;;23.84;60.19;101146.06;4999728;28;20045;-71
2023/07/20 12:08:29;;;;;;;3.38;0.90;;;;;;;23.05;62.89;101155.28;4996241;28;20525;-69
2023/07/20 12:11:39;;;;;;;8.52;1.00;;;;;;;22.80;65.07;101151.13;5018647;28;20038;-69
2023/07/20 12:14:25;;;;;;;4.78;1.00;;;;;;;22.51;65.21;101162.13;5007309;28;20081;-69
2023/07/20 12:17:11;;;;;;;3.53;1.17;;;;;;;22.51;64.66;101158.44;5011574;28;20108;-69
2023/07/20 12:19:58;;;;;;;6.07;0.90;;;;;;;22.44;66.47;101163.09;5013224;28;20069;-70
2023/07/20 12:22:44;;;;;;;1.67;0.80;;;;;;;22.18;66.12;101153.22;4999043;28;20042;-69
2023/07/20 12:25:41;;;;;;;1.02;0.63;;;;;;;22.50;67.52;101157.59;4983243;28;20049;-71
2023/07/20 12:28:26;;;;;;;1.13;0.80;;;;;;;22.61;70.01;101152.56;5016853;28;20111;-70
2023/07/20 12:31:13;;;;;;;1.70;1.00;;;;;;;22.58;68.99;101151.06;5003517;28;20049;-69
2023/07/20 12:33:58;;;;;;;5.07;0.90;;;;;;;23.42;65.46;101147.78;5003262;28;20068;-70
2023/07/20 12:36:44;;;;;;;1.80;0.80;;;;;;;23.61;63.33;101151.84;5006414;28;20049;-69
2023/07/20 12:39:30;;;;;;;3.08;0.90;;;;;;;23.53;64.73;101157.59;5012209;28;20127;-69
2023/07/20 12:42:16;;;;;;;3.15;0.82;;;;;;;23.20;66.30;101155.31;5013280;28;20038;-70
2023/07/20 12:45:02;;;;;;;3.35;1.00;;;;;;;23.45;63.41;101144.59;5008090;28;20054;-71
2023/07/20 12:47:48;;;;;;;1.35;0.90;;;;;;;23.87;61.08;101147.56;5005107;28;20060;-69